AL03 weather

Alessandria Airport
Alessandria, Piedmont, Italy

Public forecast

Using degrees Celsius for public forecast. Weather courtesy of forecast.io.

Closest aviation weather report (METAR) to Alessandria Airport

Closest report is Genoa Cristoforo Colombo Airport, 32.0 nm (59.3 km) SSE. Retrieved 2020/06/01 05:50 UTC (16 minutes ago):

LIMJ 010550Z 05006KT 350V100 CAVOK 19/12 Q1017

Closest aviation forecast (TAF) to Alessandria Airport

Closest forecast is Genoa Cristoforo Colombo Airport, 32.0 nm (59.3 km) SSE. Retrieved 2020/06/01 06:00 UTC (6 minutes ago):

TAF LIMJ 010500Z 0106/0206 VRB05KT CAVOK BECMG 0108/0110 18010KT TEMPO 0115/0118 SHRA BECMG 0117/0119 VRB05KT